South Riding, Virginia
Current Conditions -  °F | °C
As of 4:52 PM on Sunday 23 Nov 2014 (Local Time) from KIAD Reporting Station
Broken Clouds Broken Clouds  
Wind Chill: 53°   Ceiling: 17000
Heat Index: 53°   Visibility: 10mi
Dew Point: 35°   Wind: 8mph
Humidity: 50%   Direction: 140°SE
Pressure: 30.05"   Gusts: NA
Location:  38.8963°N, 77.5216°W
Report Text: KIAD 232152Z 14007KT 10SM BKN170 BKN200 BKN250 12/02 A3005 RMK AO2 SLP178 T01170017
Loading
Personal Weather Stations






























Interactive Weather Map New forecast layout! Learn more

10-Day Weather Forecast

Advertisements
Track Severe Weather on mobile